Amunt
Inicio > meteoXarxa
Fes-te'n soci

METEOXARXA

Atzeneta del Maestrat
Ubicació
Comarca l′Alcalatén
Altitud (msnm) 402
Posició geogràfica 40° 12' 58.77" N, 00° 10' 23.64" W
Model Davis Vantage Pro
Presa de dades
Font de les dades Universitat Jaume I de Castelló
Estadístiques. Resum
Data Temperatura (ºC) Humitat (%) Pressió (hPa) Vent (km/h) Precipit. (mm)
Mínima Mitjana Màxima Mínima Mitjana Màxima Mínima Mitjana Màxima Predom. Mitjana Ràfega màxima Total Dies de pluja
Mínima Mitjana Màxima Mínima Mitjana Màxima
Últimes dades diàries
24-02-2017 7,3     10,8     13,7 NW 18,2 51,5 0,0  
23-02-2017 9,2     12,5     17,3 NNW 6,6 33,8 0,0  
22-02-2017 7,0     11,7     16,7 NNW 6,9 20,9 0,0  
21-02-2017 4,9     10,1     16,9 NNW 8,4 20,9 0,0  
20-02-2017 0,9     7,8     16,2 SW 2,9 19,3 0,3  
19-02-2017 2,6     8,1     13,2 NNW 5,0 25,7 0,0  
18-02-2017 5,3     8,8     14,1 NNW 8,5 27,4 0,0  
17-02-2017 1,1     8,2     15,8 NNW 3,2 19,3 0,0  
16-02-2017 5,1     9,6     14,4 SW 0,8 16,1 0,0  
15-02-2017 0,9     7,6     16,0 SW 1,3 20,9 0,3  
14-02-2017 1,4     8,0     16,6 SW 2,1 24,1 0,3  
13-02-2017 4,8     9,9     13,8 NNW 3,2 22,5 9,7  
12-02-2017 8,7     9,9     11,3 W 5,0 33,8 0,0  
11-02-2017 5,2     7,7     9,8 W 6,0 25,7 0,0  
10-02-2017 2,9     5,9     9,4 W 7,2 22,5 0,0  
09-02-2017 4,1     6,9     12,3 W 11,7 54,7 0,0  
08-02-2017 5,6     8,4     11,9 NE 21,7 82,1 0,0  
07-02-2017 8,2     14,7     20,2 SW 3,9 37,0 0,0  
06-02-2017 8,3     12,7     16,6 ENE 9,0 67,6 0,0  
05-02-2017 6,2     10,9     15,3 W 38,8 135,2 0,0  
04-02-2017 11,8     14,6     17,9 W 15,3 51,5 0,0  
03-02-2017 7,9     11,9     16,3 W 20,3 106,2 0,0  
02-02-2017 7,8     9,8     12,3 W 4,8 20,9  
01-02-2017 1,3     9,2     16,9 W 1,9 16,1 0,0  
31-01-2017 4,9     10,4     14,7 W 4,3 20,9 0,0  
30-01-2017 8,3     11,5     15,6 W 6,0 19,3 0,0  
29-01-2017 5,7     8,2     11,3 W 9,0 41,8 0,0  
28-01-2017 5,5     8,7     11,1 W 23,0 82,1 0,0  
27-01-2017 5,0     7,3     11,7 WNW 7,4 53,1 11,2  
26-01-2017 -1,3     4,6     9,3 SW 1,3 17,7 0,0  
25-01-2017 -2,4     4,4     12,8 ESE 1,9 24,1 0,0  
24-01-2017 0,1     7,6     13,9 NE 4,3 24,1 0,0  
Dades del mes en curs (actualitzades fins l'últim dia disponible)
02/2017 0,9 5,4 11,8 9,8 9,4 14,8 20,2   8,9 135,2 10,6  
Últimes dades mensuals
05/2016 6,2 11,5 15,8 15,3 13,6 19,9 26,6 11,9 98,2 55,9 8
04/2016 4,9 8,9 13,0 12,6 12,3 17,2 22,7 12,3 91,7 33,9 10
03/2016 2,9 6,7 11,2 10,2 8,7 14,5 21,0 15,5 117,5 49,9 11
02/2016 -0,6 6,5 15,0 10,2 7,0 14,7 20,9 17,8 93,3 6,4 5
01/2016 3,3 7,0 12,3 10,5 7,3 14,2 18,8 12,3 90,1 3,4 4
12/2015 5,5 8,0 12,5 11,1 11,9 14,9 18,5 5,3 33,8 0,6 2
11/2015 2,9 10,2 14,2 13,6 8,7 17,4 22,6 12,5 95,0 133,4 3
10/2015 6,6 12,4 20,3 15,8 15,8 19,6 26,3 9,1 59,5 26,8 8
09/2015 11,6 15,3 18,9 18,6 17,9 23,3 27,9 9,2 62,8 71,5 12
08/2015 15,3 18,4 23,1 22,4 19,9 26,8 31,8 8,9 74,0 63,7 7
07/2015 16,1 20,6 23,8 24,9 23,8 30,0 36,6 8,2 96,6 45,5 5
06/2015 11,6 16,2 22,9 21,0 21,9 26,6 31,6 9,5 83,7 63,0 7
05/2015 8,9 13,3 18,6 18,3 18,6 23,8 36,8 12,5 98,2 10,1 3
Dades de l'any en curs (actualitzades fins l'últim dia disponible)
2017 -2,4 4,3 11,8 8,5 4,3 12,9 20,2   11,4 135,2 22,1  
Últimes dades anuals
2015 -0,6 11,8 16,1 15,6 18,5 20,1 36,8 11,5 140,0 754,5 54